MMTP/TAP METAR and TAF weather

Enter ICAO airport designator
Station Type Date Time Source
MMTP METAR 2022/12/05 13:48 UTC NOAA

MMTP 051348Z 00000KT 10SM SKC 25/24 A2988 RMK HZY CI


Station Type Date Time Source
MMTP Decoded METAR 2022/12/05 13:48 UTC NOAA

Tapachula , Mexico (MMTP) 14-47N 092-23W
Dec 05, 2022 - 08:48 AM EST / 2022.12.05 1348 UTC
Wind: Calm:0
Visibility: 10 mile(s):0
Sky conditions: clear
Temperature: 77 F (25 C)
Dew Point: 75 F (24 C)
Relative Humidity: 94%
Pressure (altimeter): 29.88 in. Hg (1011 hPa)
ob: MMTP 051348Z 00000KT 10SM SKC 25/24 A2988 RMK HZY CI
cycle: 14

Station Type Date Time Source
MMTP TAF 2022/12/05 12:10 UTC NOAA

TAF MMTP 051106Z 0512/0618 05005KT P6SM SCT020
FM051800 25005KT P6SM SCT020
FM052100 25010KT P6SM BKN020
TEMPO 0521/0601 6SM -TSRA BKN020CB
FM060200 00000KT P6SM SCT020 BKN080
TEMPO 0606/0610 4SM TSRA BKN020CB
FM061200 05005KT P6SM SCT020

Example: see airport list